Shimofusa Air Base, Japan

4:05 PM JST on July 12, 2014 (GMT +0900)
Funabashi (ICHIBAFU2) Elev 92 ft | 35.74 °N, 140.04 °E | Change Station

Current weather conditions updated 5 seconds ago

Partly Cloudy
Partly Cloudy
89.3 °F
Feels Like 99 °F
N
8.0
Wind Variable Wind from ESE
Gusts 15.0 mph

Tomorrow is forecast to be Much Cooler than today.

Today
High -- | Low -- °F
--% Chance of Precip.
Yesterday
High -- | Low -- °F
Precip. -- in
4:32 AM 6:57 PM
Full, 100% visible
Pressure 29.62 in
Visibility 6.2 miles
Clouds Few 3000 ft
Heat Index 99 °F
Dew Point 74 °F
Humidity 61%
Rainfall 0.00 in
Snow Depth Not available.
UV 3 out of 12
Pollen Not available.
Air Quality Not available.
Flu Activity Not available.
METAR RJTI 120700Z 20011KT 9999 FEW030 BKN/// 30/22 Q1003

More Conditions Fewer Conditions

Pressure 29.62 in
Visibility 6.2 miles
Clouds Few 3000 ft
Heat Index 99 °F
Dew Point 74 °F
Humidity 61%
Rainfall 0.00 in
Snow Depth Not available.
UV 3 out of 12
Pollen Not available.
Air Quality Not available.
Flu Activity Not available.
METAR RJTI 120700Z 20011KT 9999 FEW030 BKN/// 30/22 Q1003

More Conditions Fewer Conditions

10-Day Weather Forecast

Almanac

Astronomy

Jul. 12, 2014 Rise Set
Actual Time 4:32 AM JST 6:57 PM JST
Civil Twilight 4:03 AM JST 7:27 PM JST
Nautical Twilight 3:26 AM JST 8:03 PM JST
Astronomical Twilight 2:46 AM JST 8:43 PM JST
Moon 6:30 PM JST 4:06 AM JST
Length of Visible Light 15h 23m
Length of Day
14h 24m
Tomorrow will be 1m 1s shorter.
Full, 100% of the Moon is Illuminated
Today
Full
Jul 12
Full
Jul 18
Last Quarter
Jul 26
New
Aug 3
First Quarter

Yesterday's Extremes

Country Highs Country Lows

Community

WunderPhotos

Upload Photos

1,732,718 photos uploaded!

Nearby

Snow Depth

Not available.

Earthquake Activity

City Distance Mag. Time & Date
No recent earthquake activity has been reported nearby.
Minimum magnitude displayed is 2.5.

Coastal Water Temperatures

Place Temperature
No Stations Reporting

Nearby Weather Stations

Station Location Temp. Heat Index Dew Point Humidity Wind Precip. Elev Updated Type
Funabashi, Funabashi 89.3 °F 99 °F 74 °F 61% ESE  at  8.0 mph 0.00 in / hr 92 ft 4:05 PM JST Rapid Fire
Kosuge-st, Adachi 92.3 °F 100 °F 72 °F 51% NE  at  2.2 mph 0.00 in / hr 40 ft 4:05 PM JST Normal
Nezu, Bunkyo 95.3 °F 104 °F 72 °F 47% SE  at  1.0 mph 0.00 in / hr 98 ft 4:05 PM JST Normal
Kawaguchi 91.6 °F 99 °F 71 °F 52% SSE  at  7.0 mph 0.00 in / hr 13 ft 4:05 PM JST Rapid Fire
Meguro-ku, Meguro-ku 89.6 °F 97 °F 72 °F 56% South  at  7.0 mph 0.00 in / hr 141 ft 4:00 PM JST Normal
Kamata, Ota-Ku 91.7 °F 100 °F 72 °F 53% SW  at  7.0 mph 0.00 in / hr 30 ft 4:05 PM JST Rapid Fire
Tamagawaen, Oota-city 86.6 °F 101 °F 79 °F 78% SW  at  12.0 mph 0.00 in / hr 40 ft 4:05 PM JST Rapid Fire

Show More Stations Show Fewer Stations